Time;durP1;ratioP1;P1;durP2;ratioP2;P2;SDS_P1;SDS_P2;PMS_P1;PMS_P2;Temp;Humidity;BMP_temperature;BMP_pressure;BME280_temperature;BME280_humidity;BME280_pressure;Samples;Min_cycle;Max_cycle;Signal;HPM_P1;HPM_P2
2022/11/10 00:01:09;;;;;;;15.13;3.35;;;9.30;99.90;;;;;;5090850;28;20146;-77
2022/11/10 00:03:37;;;;;;;14.27;3.03;;;9.20;99.90;;;;;;5072511;28;20048;-76
2022/11/10 00:06:04;;;;;;;17.45;3.05;;;9.20;99.90;;;;;;5090377;28;20040;-76
2022/11/10 00:08:29;;;;;;;12.38;3.05;;;9.20;99.90;;;;;;5090635;28;20060;-77
2022/11/10 00:10:56;;;;;;;15.38;3.05;;;9.20;99.90;;;;;;5072682;28;20054;-77
2022/11/10 00:13:34;;;;;;;14.95;3.08;;;9.20;99.90;;;;;;5090560;28;20047;-76
2022/11/10 00:18:46;;;;;;;13.05;2.70;;;9.10;99.90;;;;;;5090441;28;20096;-76
2022/11/10 00:21:14;;;;;;;15.60;3.17;;;9.80;99.90;;;;;;5090214;28;20460;-75
2022/11/10 00:23:40;;;;;;;15.32;2.50;;;9.10;99.90;;;;;;5089468;28;20131;-76
2022/11/10 00:26:17;;;;;;;14.93;3.03;;;9.10;99.90;;;;;;5090294;28;20181;-76
2022/11/10 00:28:43;;;;;;;9.68;2.45;;;9.10;99.90;;;;;;5089871;28;20040;-74
2022/11/10 00:31:10;;;;;;;17.92;3.22;;;9.10;99.90;;;;;;5071972;28;20050;-75
2022/11/10 00:33:37;;;;;;;15.30;2.95;;;9.10;99.90;;;;;;5090120;28;20181;-75
2022/11/10 00:36:04;;;;;;;16.90;3.25;;;9.10;99.90;;;;;;5090024;28;20044;-75
2022/11/10 00:38:30;;;;;;;15.68;3.00;;;9.10;99.90;;;;;;5090173;28;20054;-78
2022/11/10 00:40:58;;;;;;;16.58;2.90;;;9.10;99.90;;;;;;5090179;28;20040;-75
2022/11/10 00:43:23;;;;;;;14.10;3.33;;;9.50;99.90;;;;;;5090052;28;20424;-75
2022/11/10 00:45:49;;;;;;;14.90;3.20;;;9.10;99.90;;;;;;5072023;28;20097;-76
2022/11/10 00:48:15;;;;;;;16.95;3.05;;;9.20;99.90;;;;;;5089935;28;20036;-75
2022/11/10 00:50:40;;;;;;;15.77;3.13;;;9.10;99.90;;;;;;5089876;28;20115;-75
2022/11/10 00:53:06;;;;;;;14.25;3.13;;;9.10;99.90;;;;;;5071605;28;20481;-75
2022/11/10 00:55:32;;;;;;;17.73;3.33;;;9.10;99.90;;;;;;5071797;28;20044;-76
2022/11/10 00:57:57;;;;;;;19.75;3.17;;;9.10;99.90;;;;;;5089644;28;20044;-75
2022/11/10 01:00:23;;;;;;;12.98;3.17;;;9.10;99.90;;;;;;5089778;28;20123;-75
2022/11/10 01:02:48;;;;;;;15.88;3.55;;;9.10;99.90;;;;;;5090114;28;20040;-78
2022/11/10 01:05:14;;;;;;;16.08;3.28;;;9.30;99.90;;;;;;5090202;28;20036;-76
2022/11/10 01:07:40;;;;;;;11.15;2.95;;;9.10;99.90;;;;;;5089885;28;20109;-76
2022/11/10 01:10:06;;;;;;;16.90;3.47;;;9.20;99.90;;;;;;5089750;28;20048;-75
2022/11/10 01:12:31;;;;;;;15.90;3.85;;;9.10;99.90;;;;;;5090012;28;20082;-75
2022/11/10 01:14:57;;;;;;;17.95;3.00;;;9.10;99.90;;;;;;5071876;28;20079;-76
2022/11/10 01:17:23;;;;;;;18.00;3.75;;;9.10;99.90;;;;;;5089852;28;20036;-75
2022/11/10 01:19:49;;;;;;;16.70;3.47;;;9.10;99.90;;;;;;5073823;28;20052;-74
2022/11/10 01:22:15;;;;;;;16.80;3.28;;;9.60;99.90;;;;;;5069239;28;20406;-75
2022/11/10 01:24:40;;;;;;;18.30;3.58;;;9.10;99.90;;;;;;5069251;28;20060;-75
2022/11/10 01:27:06;;;;;;;23.38;3.90;;;9.10;99.90;;;;;;5070456;28;20044;-75
2022/11/10 01:29:31;;;;;;;19.98;3.47;;;9.10;99.90;;;;;;5071503;28;20105;-76
2022/11/10 01:31:57;;;;;;;18.98;3.72;;;9.10;99.90;;;;;;5089835;28;20044;-74
2022/11/10 01:34:23;;;;;;;18.20;3.90;;;9.00;99.90;;;;;;5090892;28;20491;-75
2022/11/10 01:36:48;;;;;;;22.55;3.85;;;9.00;99.90;;;;;;5093309;28;20530;-75
2022/11/10 01:39:14;;;;;;;14.43;3.80;;;9.00;99.90;;;;;;5075002;28;20062;-75
2022/11/10 01:41:39;;;;;;;22.35;4.38;;;9.00;99.90;;;;;;5093637;28;20044;-78
2022/11/10 01:44:22;;;;;;;18.35;4.40;;;9.40;99.90;;;;;;5093594;28;20496;-77
2022/11/10 01:46:47;;;;;;;19.13;4.40;;;9.00;99.90;;;;;;5093389;28;20079;-79
2022/11/10 01:49:16;;;;;;;29.15;4.97;;;9.00;99.90;;;;;;5074646;28;20458;-76
2022/11/10 01:51:55;;;;;;;17.60;4.22;;;9.00;99.90;;;;;;5093196;28;20161;-75
2022/11/10 01:54:46;;;;;;;15.85;3.92;;;8.90;99.90;;;;;;5092948;28;20055;-77
2022/11/10 01:57:13;;;;;;;17.08;4.60;;;9.00;99.90;;;;;;5092338;28;20101;-75
2022/11/10 01:59:44;;;;;;;19.00;4.50;;;8.90;99.90;;;;;;5093149;28;20100;-77
2022/11/10 02:02:33;;;;;;;20.23;4.68;;;8.90;99.90;;;;;;5092898;28;20048;-76
2022/11/10 02:05:01;;;;;;;14.32;3.92;;;8.90;99.90;;;;;;5092985;28;20060;-76
2022/11/10 02:07:28;;;;;;;17.45;3.97;;;8.80;99.90;;;;;;5074769;28;20040;-78
2022/11/10 02:09:53;;;;;;;15.82;4.25;;;8.80;99.90;;;;;;5092583;28;20041;-75
2022/11/10 02:12:35;;;;;;;18.33;4.32;;;8.80;99.90;;;;;;5092955;28;20082;-76
2022/11/10 02:15:10;;;;;;;15.88;5.00;;;8.80;99.90;;;;;;5072610;28;20048;-76
2022/11/10 02:17:36;;;;;;;18.73;4.22;;;8.80;99.90;;;;;;5072693;28;20049;-75
2022/11/10 02:20:08;;;;;;;15.55;3.63;;;8.80;99.90;;;;;;5072473;28;20514;-76
2022/11/10 02:22:35;;;;;;;14.20;3.95;;;8.80;99.90;;;;;;5072416;28;20052;-78
2022/11/10 02:25:01;;;;;;;19.17;4.13;;;8.80;99.90;;;;;;5072302;28;20055;-75
2022/11/10 02:27:27;;;;;;;15.15;3.83;;;8.80;99.90;;;;;;5072133;28;20152;-75
2022/11/10 02:29:52;;;;;;;22.38;4.82;;;8.80;99.90;;;;;;5072517;28;20440;-76
2022/11/10 02:32:18;;;;;;;18.08;3.83;;;8.80;99.90;;;;;;5072156;28;20044;-78
2022/11/10 02:34:44;;;;;;;25.83;5.07;;;8.80;99.90;;;;;;5076968;28;20093;-76
2022/11/10 02:37:09;;;;;;;18.20;4.18;;;8.80;99.90;;;;;;5092741;28;20048;-78
2022/11/10 02:39:36;;;;;;;16.10;4.18;;;8.80;99.90;;;;;;5074372;28;20051;-75
2022/11/10 02:42:02;;;;;;;17.58;4.10;;;8.90;99.90;;;;;;5092449;28;20051;-76
2022/11/10 02:44:27;;;;;;;20.90;4.43;;;8.80;99.90;;;;;;5092772;28;20403;-78
2022/11/10 02:46:53;;;;;;;18.65;4.25;;;8.80;99.90;;;;;;5091134;28;20040;-76
2022/11/10 02:49:19;;;;;;;19.70;4.40;;;8.90;99.90;;;;;;5071984;28;20044;-77
2022/11/10 02:51:44;;;;;;;19.40;3.90;;;8.90;99.90;;;;;;5092209;28;20085;-77
2022/11/10 02:54:10;;;;;;;14.77;3.70;;;9.30;99.90;;;;;;5092122;28;20515;-76
2022/11/10 02:56:36;;;;;;;15.68;4.28;;;8.90;99.90;;;;;;5073055;28;20054;-78
2022/11/10 02:59:02;;;;;;;26.85;4.68;;;8.90;99.90;;;;;;5091537;28;20052;-78
2022/11/10 03:01:27;;;;;;;19.67;4.40;;;8.90;99.90;;;;;;5090875;28;20040;-76
2022/11/10 03:03:53;;;;;;;20.15;4.32;;;8.90;99.90;;;;;;5091513;28;20035;-76
2022/11/10 03:06:18;;;;;;;18.25;3.85;;;8.90;99.90;;;;;;5091894;28;20055;-75
2022/11/10 03:08:45;;;;;;;18.88;4.53;;;8.90;99.90;;;;;;5091802;28;20043;-76
2022/11/10 03:11:10;;;;;;;22.70;5.03;;;9.00;99.90;;;;;;5072575;28;20083;-74
2022/11/10 03:13:36;;;;;;;17.85;4.22;;;9.00;99.90;;;;;;5090934;28;20088;-77
2022/11/10 03:16:02;;;;;;;17.88;3.83;;;9.00;99.90;;;;;;5091165;28;20106;-76
2022/11/10 03:18:27;;;;;;;20.48;4.53;;;9.00;99.90;;;;;;5073107;28;20117;-75
2022/11/10 03:20:53;;;;;;;21.05;4.10;;;9.10;99.90;;;;;;5091560;28;20140;-75
2022/11/10 03:23:19;;;;;;;21.48;4.22;;;9.10;99.90;;;;;;5072784;28;20090;-76
2022/11/10 03:25:45;;;;;;;20.63;3.65;;;9.10;99.90;;;;;;5056145;28;20056;-75
2022/11/10 03:28:11;;;;;;;24.23;4.35;;;9.10;99.90;;;;;;5091034;28;20375;-74
2022/11/10 03:30:37;;;;;;;20.63;4.20;;;9.10;99.90;;;;;;5086700;28;20044;-78
2022/11/10 03:33:03;;;;;;;18.63;3.97;;;9.10;99.90;;;;;;5070535;28;20044;-78
2022/11/10 03:35:29;;;;;;;18.15;3.72;;;9.10;99.90;;;;;;5069711;28;20559;-78
2022/11/10 03:37:55;;;;;;;24.48;4.75;;;9.50;99.90;;;;;;5071090;28;20057;-75
2022/11/10 03:40:20;;;;;;;20.60;4.20;;;9.10;99.90;;;;;;5074655;28;20041;-77
2022/11/10 03:42:46;;;;;;;18.92;4.18;;;9.20;99.90;;;;;;5070435;28;20053;-75
2022/11/10 03:45:13;;;;;;;27.17;4.13;;;9.10;99.90;;;;;;5070500;28;20047;-73
2022/11/10 03:47:39;;;;;;;21.50;4.15;;;9.10;99.90;;;;;;5090895;28;20085;-74
2022/11/10 03:50:06;;;;;;;17.60;3.80;;;9.10;99.90;;;;;;5091246;28;20044;-76
2022/11/10 03:52:32;;;;;;;18.13;3.58;;;9.00;99.90;;;;;;5072973;28;20072;-75
2022/11/10 03:54:58;;;;;;;17.55;3.58;;;9.00;99.90;;;;;;5089131;28;20114;-75
2022/11/10 03:57:24;;;;;;;21.88;4.63;;;9.00;99.90;;;;;;5072115;28;20170;-77
2022/11/10 03:59:49;;;;;;;23.92;4.22;;;9.00;99.90;;;;;;5070031;28;20055;-75
2022/11/10 04:02:15;;;;;;;20.80;3.95;;;9.00;99.90;;;;;;5074398;28;20388;-76
2022/11/10 04:10:09;;;;;;;16.98;4.03;;;9.00;99.90;;;;;;5069933;28;20483;-76
2022/11/10 04:20:47;;;;;;;27.27;5.00;;;9.00;99.90;;;;;;5090720;28;20051;-75
2022/11/10 04:23:26;;;;;;;20.30;4.70;;;9.70;99.90;;;;;;5091003;28;20047;-74
2022/11/10 04:28:43;;;;;;;24.30;5.15;;;9.90;99.90;;;;;;5081390;28;20048;-77
2022/11/10 04:31:09;;;;;;;28.13;4.75;;;9.20;99.90;;;;;;5051945;28;20041;-76
2022/11/10 04:33:35;;;;;;;31.85;5.43;;;9.20;99.90;;;;;;5070333;28;20080;-75
2022/11/10 04:36:01;;;;;;;19.27;4.43;;;9.20;99.90;;;;;;5085988;28;20146;-75
2022/11/10 04:38:26;;;;;;;23.55;5.20;;;9.30;99.90;;;;;;5090276;28;20044;-77
2022/11/10 04:40:52;;;;;;;21.13;4.80;;;9.30;99.90;;;;;;5087940;28;20044;-76
2022/11/10 04:43:18;;;;;;;25.35;5.90;;;9.30;99.90;;;;;;5089936;28;20040;-77
2022/11/10 04:45:43;;;;;;;29.88;5.13;;;9.30;99.90;;;;;;5085104;28;20036;-75
2022/11/10 04:48:09;;;;;;;20.92;4.57;;;9.30;99.90;;;;;;5081263;28;20124;-77
2022/11/10 04:50:34;;;;;;;21.48;5.25;;;9.30;99.90;;;;;;5072070;28;20059;-77
2022/11/10 04:53:00;;;;;;;17.60;5.00;;;9.30;99.90;;;;;;5090131;28;20051;-76
2022/11/10 04:55:26;;;;;;;27.02;5.88;;;9.30;99.90;;;;;;5089944;28;20101;-76
2022/11/10 04:57:51;;;;;;;21.20;5.60;;;9.40;99.90;;;;;;5062262;28;20067;-77
2022/11/10 05:00:17;;;;;;;25.15;5.43;;;9.40;99.90;;;;;;5049519;28;20041;-78
2022/11/10 05:02:43;;;;;;;26.70;5.40;;;9.40;99.90;;;;;;5080897;28;20127;-77
2022/11/10 05:05:09;;;;;;;22.33;5.10;;;9.40;99.90;;;;;;5069878;28;20044;-77
2022/11/10 05:07:34;;;;;;;19.48;4.68;;;9.80;99.90;;;;;;5051540;28;20049;-79
2022/11/10 05:10:00;;;;;;;27.15;4.93;;;9.40;99.90;;;;;;5078572;28;20043;-75
2022/11/10 05:12:25;;;;;;;28.52;5.82;;;9.40;99.90;;;;;;5093933;28;20048;-75
2022/11/10 05:14:51;;;;;;;20.23;5.15;;;9.40;99.90;;;;;;5075436;28;20055;-75
2022/11/10 05:17:16;;;;;;;24.52;4.80;;;9.40;99.90;;;;;;5076009;28;20076;-78
2022/11/10 05:19:42;;;;;;;27.27;5.38;;;9.40;99.90;;;;;;5073701;28;20132;-77
2022/11/10 05:22:08;;;;;;;24.25;5.00;;;9.40;99.90;;;;;;5073770;28;20048;-75
2022/11/10 05:24:33;;;;;;;31.77;6.00;;;9.40;99.90;;;;;;5073875;28;20158;-77
2022/11/10 05:26:59;;;;;;;26.33;4.68;;;9.40;99.90;;;;;;5055527;28;20048;-77
2022/11/10 05:29:24;;;;;;;27.90;4.75;;;9.40;99.90;;;;;;5073154;28;20118;-76
2022/11/10 05:31:50;;;;;;;26.80;4.97;;;9.40;99.90;;;;;;5077044;28;20049;-75
2022/11/10 05:34:16;;;;;;;27.95;4.90;;;9.40;99.90;;;;;;5091002;28;20437;-75
2022/11/10 05:36:42;;;;;;;23.33;4.43;;;9.40;99.90;;;;;;5070584;28;20043;-77
2022/11/10 05:39:07;;;;;;;28.63;4.80;;;9.40;99.90;;;;;;5073549;28;20127;-75
2022/11/10 05:41:33;;;;;;;28.30;4.80;;;9.40;99.90;;;;;;5073439;28;20093;-78
2022/11/10 05:43:58;;;;;;;28.85;4.22;;;9.40;99.90;;;;;;5073191;28;20072;-75
2022/11/10 05:46:24;;;;;;;24.38;4.18;;;9.40;99.90;;;;;;5079353;28;20551;-75
2022/11/10 05:48:50;;;;;;;29.92;5.15;;;9.40;99.90;;;;;;5072743;28;20059;-75
2022/11/10 05:51:16;;;;;;;22.27;5.20;;;9.40;99.90;;;;;;5072847;28;20051;-76
2022/11/10 05:53:42;;;;;;;24.75;3.95;;;9.40;99.90;;;;;;5073132;28;20086;-76
2022/11/10 05:56:07;;;;;;;24.95;4.40;;;9.40;99.90;;;;;;5085668;28;20051;-76
2022/11/10 05:58:33;;;;;;;31.58;4.85;;;9.60;99.90;;;;;;5092797;28;20044;-73
2022/11/10 06:00:58;;;;;;;29.90;4.20;;;9.40;99.90;;;;;;5092846;28;20062;-77
2022/11/10 06:03:24;;;;;;;27.73;4.10;;;9.50;99.90;;;;;;5092858;28;20044;-79
2022/11/10 06:05:50;;;;;;;23.00;4.15;;;9.50;99.90;;;;;;5092882;28;20096;-76
2022/11/10 06:08:16;;;;;;;31.95;4.82;;;9.50;99.90;;;;;;5092837;28;20127;-79
2022/11/10 06:10:42;;;;;;;28.90;3.80;;;9.50;99.90;;;;;;5092627;28;20494;-75
2022/11/10 06:13:09;;;;;;;24.98;4.32;;;9.50;99.90;;;;;;5091727;28;20504;-75
2022/11/10 06:15:35;;;;;;;28.20;5.15;;;9.50;99.90;;;;;;5056604;28;20057;-75
2022/11/10 06:18:01;;;;;;;18.17;3.83;;;9.50;99.90;;;;;;5091577;28;20102;-77
2022/11/10 06:20:27;;;;;;;21.00;3.70;;;9.50;99.90;;;;;;5091038;28;20611;-78
2022/11/10 06:22:58;;;;;;;29.42;4.82;;;9.60;99.90;;;;;;5074775;28;20062;-74
2022/11/10 06:25:25;;;;;;;29.35;4.55;;;10.30;99.90;;;;;;5092399;28;20047;-76
2022/11/10 06:27:50;;;;;;;27.63;4.05;;;9.60;99.90;;;;;;5092569;28;20133;-75
2022/11/10 06:30:16;;;;;;;26.67;4.50;;;9.50;99.90;;;;;;5079427;28;20494;-75
2022/11/10 06:32:43;;;;;;;37.13;4.90;;;9.50;99.90;;;;;;5089859;28;20043;-76
2022/11/10 06:35:09;;;;;;;23.33;4.55;;;9.50;99.90;;;;;;5092097;28;20067;-79
2022/11/10 06:37:34;;;;;;;23.63;4.95;;;9.90;99.90;;;;;;5090894;28;20109;-79
2022/11/10 06:40:00;;;;;;;28.17;4.97;;;9.50;99.90;;;;;;5090501;28;20040;-75
2022/11/10 06:42:26;;;;;;;28.38;4.75;;;9.80;99.90;;;;;;5072413;28;20044;-75
2022/11/10 06:44:51;;;;;;;30.55;5.43;;;9.50;99.90;;;;;;5054159;28;20388;-77
2022/11/10 06:47:17;;;;;;;32.33;6.13;;;9.50;99.90;;;;;;5071257;28;20102;-76
2022/11/10 06:49:42;;;;;;;28.30;6.07;;;9.60;99.90;;;;;;5059380;28;20372;-78
2022/11/10 06:52:08;;;;;;;28.27;4.50;;;9.60;99.90;;;;;;5051921;28;20049;-76
2022/11/10 06:54:34;;;;;;;35.42;5.50;;;9.60;99.90;;;;;;5052033;28;20044;-77
2022/11/10 06:56:59;;;;;;;32.92;5.50;;;9.60;99.90;;;;;;5050543;28;20052;-75
2022/11/10 06:59:25;;;;;;;28.33;4.78;;;9.60;99.90;;;;;;5051519;28;20049;-76
2022/11/10 07:01:50;;;;;;;24.70;5.47;;;9.60;99.90;;;;;;5051524;28;20095;-77
2022/11/10 07:04:16;;;;;;;28.15;5.38;;;9.60;99.90;;;;;;5051722;28;20045;-76
2022/11/10 07:06:42;;;;;;;28.38;5.25;;;9.60;99.90;;;;;;5090076;28;20040;-77
2022/11/10 07:09:07;;;;;;;21.90;5.10;;;9.60;99.90;;;;;;5092149;28;20039;-75
2022/11/10 07:11:33;;;;;;;25.42;5.35;;;9.60;99.90;;;;;;5092023;28;20101;-78
2022/11/10 07:13:59;;;;;;;28.83;4.85;;;9.70;99.90;;;;;;5091664;28;20055;-77
2022/11/10 07:16:26;;;;;;;24.60;5.50;;;9.60;99.90;;;;;;5080819;28;20145;-76
2022/11/10 07:18:51;;;;;;;29.23;4.55;;;9.70;99.90;;;;;;5070788;28;20497;-76
2022/11/10 07:21:17;;;;;;;30.52;4.90;;;9.70;99.90;;;;;;5052400;28;20044;-76
2022/11/10 07:23:42;;;;;;;31.75;4.93;;;9.70;99.90;;;;;;5051969;28;20052;-76
2022/11/10 07:26:08;;;;;;;26.88;4.82;;;9.80;99.90;;;;;;5051320;28;20442;-77
2022/11/10 07:28:34;;;;;;;26.48;4.28;;;9.80;99.90;;;;;;5051153;28;20404;-77
2022/11/10 07:31:03;;;;;;;29.05;4.50;;;9.80;99.90;;;;;;5065248;28;20050;-80
2022/11/10 07:33:28;;;;;;;29.02;5.15;;;9.80;99.90;;;;;;5072900;28;20421;-77
2022/11/10 07:35:56;;;;;;;26.30;4.65;;;9.80;99.90;;;;;;5091003;28;20059;-79
2022/11/10 07:38:22;;;;;;;23.88;4.22;;;9.80;99.90;;;;;;5080732;28;20051;-77
2022/11/10 07:40:52;;;;;;;29.70;4.70;;;9.80;99.90;;;;;;5065871;28;20136;-80
2022/11/10 07:43:19;;;;;;;22.35;4.40;;;10.20;99.90;;;;;;5071289;28;20048;-78
2022/11/10 07:45:45;;;;;;;22.45;5.40;;;9.80;99.90;;;;;;5070900;28;20055;-78
2022/11/10 07:48:11;;;;;;;21.70;3.95;;;9.80;99.90;;;;;;5070660;28;20053;-78
2022/11/10 07:50:37;;;;;;;27.80;5.13;;;9.80;99.90;;;;;;5052941;28;20048;-77
2022/11/10 07:53:08;;;;;;;20.77;4.35;;;10.10;99.90;;;;;;5071049;28;20425;-80
2022/11/10 07:55:36;;;;;;;30.90;4.43;;;9.80;99.90;;;;;;5071012;28;20041;-79
2022/11/10 07:58:03;;;;;;;26.92;4.60;;;10.50;99.90;;;;;;5070810;28;20384;-78
2022/11/10 08:00:28;;;;;;;31.13;5.00;;;9.80;99.90;;;;;;5070803;28;20562;-78
2022/11/10 08:02:59;;;;;;;29.73;4.95;;;9.90;99.90;;;;;;5073826;28;20101;-74
2022/11/10 08:05:25;;;;;;;32.03;5.50;;;9.90;99.90;;;;;;5070638;28;20032;-76
2022/11/10 08:07:51;;;;;;;34.67;5.30;;;10.60;99.90;;;;;;5069516;28;20044;-78
2022/11/10 08:10:17;;;;;;;21.95;4.68;;;9.90;99.90;;;;;;5070666;28;20041;-78
2022/11/10 08:12:43;;;;;;;28.77;5.43;;;9.90;99.90;;;;;;5070616;28;20041;-78
2022/11/10 08:15:09;;;;;;;23.10;4.78;;;10.00;99.90;;;;;;5070458;28;20097;-78
2022/11/10 08:17:34;;;;;;;31.52;6.32;;;10.00;99.90;;;;;;5070369;28;20048;-75
2022/11/10 08:20:00;;;;;;;33.20;5.53;;;10.10;99.90;;;;;;5069946;28;20040;-77
2022/11/10 08:22:26;;;;;;;30.88;5.47;;;10.30;99.90;;;;;;5070134;28;20442;-77
2022/11/10 08:24:52;;;;;;;22.70;4.72;;;10.20;99.90;;;;;;5070054;28;20044;-77
2022/11/10 08:27:18;;;;;;;37.35;5.70;;;10.30;99.90;;;;;;5051642;28;20033;-76
2022/11/10 08:29:43;;;;;;;26.13;5.72;;;10.90;99.90;;;;;;5063479;28;20048;-76
2022/11/10 08:32:09;;;;;;;32.72;5.32;;;10.40;99.90;;;;;;5070030;28;20166;-77
2022/11/10 08:34:35;;;;;;;24.60;5.60;;;10.50;99.90;;;;;;5071393;28;20444;-77
2022/11/10 08:37:01;;;;;;;22.27;5.63;;;10.60;99.90;;;;;;5090413;28;20044;-78
2022/11/10 08:39:26;;;;;;;18.98;5.45;;;10.60;99.90;;;;;;5090397;28;20051;-75
2022/11/10 08:41:52;;;;;;;26.60;5.60;;;10.70;99.90;;;;;;5090395;28;20043;-80
2022/11/10 08:44:18;;;;;;;25.45;5.38;;;10.70;99.90;;;;;;5089671;28;20125;-78
2022/11/10 08:46:43;;;;;;;24.23;5.40;;;11.20;99.90;;;;;;5090135;28;20132;-77
2022/11/10 08:49:09;;;;;;;27.60;4.93;;;10.70;99.90;;;;;;5090455;28;20047;-77
2022/11/10 08:51:35;;;;;;;22.88;5.30;;;10.80;99.90;;;;;;5090116;28;20143;-77
2022/11/10 08:54:00;;;;;;;23.45;5.00;;;10.80;99.90;;;;;;5071871;28;20149;-76
2022/11/10 08:56:26;;;;;;;26.75;5.60;;;10.80;99.90;;;;;;5077171;28;20040;-75
2022/11/10 08:58:53;;;;;;;22.08;5.30;;;10.90;99.90;;;;;;5070471;28;20127;-75
2022/11/10 09:01:18;;;;;;;25.20;5.40;;;11.00;99.90;;;;;;5064998;28;20052;-75
2022/11/10 09:03:44;;;;;;;24.67;5.55;;;11.10;99.90;;;;;;5067941;28;20045;-75
2022/11/10 09:06:10;;;;;;;20.50;4.78;;;11.30;99.90;;;;;;5071155;28;20076;-75
2022/11/10 09:08:37;;;;;;;25.83;5.18;;;11.40;99.90;;;;;;5068137;28;20737;-77
2022/11/10 09:11:03;;;;;;;22.05;5.68;;;11.50;99.90;;;;;;5069512;28;20055;-77
2022/11/10 09:13:29;;;;;;;27.55;5.28;;;11.70;99.90;;;;;;5069858;28;20044;-75
2022/11/10 09:15:55;;;;;;;22.50;4.88;;;11.60;99.90;;;;;;5068979;28;20040;-74
2022/11/10 09:18:20;;;;;;;25.02;5.30;;;11.70;99.90;;;;;;5069112;28;20098;-74
2022/11/10 09:20:46;;;;;;;26.35;5.97;;;12.10;99.90;;;;;;5069143;28;20055;-77
2022/11/10 09:23:14;;;;;;;22.70;5.10;;;11.80;99.90;;;;;;5069418;28;20102;-78
2022/11/10 09:25:41;;;;;;;22.55;5.70;;;11.80;99.90;;;;;;5069790;28;20076;-77
2022/11/10 09:28:12;;;;;;;23.35;5.53;;;11.80;99.90;;;;;;5069659;28;20180;-76
2022/11/10 09:30:38;;;;;;;20.90;5.35;;;11.80;99.90;;;;;;5069578;28;20053;-77
2022/11/10 09:33:04;;;;;;;25.05;6.30;;;11.80;99.90;;;;;;5069506;28;20422;-77
2022/11/10 09:35:30;;;;;;;24.65;5.90;;;11.80;99.90;;;;;;5060229;28;20074;-75
2022/11/10 09:37:55;;;;;;;31.17;6.28;;;11.80;99.90;;;;;;5070967;28;20142;-77
2022/11/10 09:40:22;;;;;;;25.55;6.32;;;11.80;99.90;;;;;;5089878;28;20047;-78
2022/11/10 09:42:51;;;;;;;21.77;6.82;;;11.80;99.90;;;;;;5071404;28;20089;-78
2022/11/10 09:45:31;;;;;;;28.58;7.80;;;11.70;99.90;;;;;;5089628;28;20139;-77
2022/11/10 09:48:06;;;;;;;22.83;7.35;;;11.70;99.90;;;;;;5089535;28;20136;-78
2022/11/10 09:50:53;;;;;;;32.45;7.90;;;11.60;99.90;;;;;;5055342;28;20048;-78
2022/11/10 09:53:24;;;;;;;30.65;7.78;;;11.70;99.90;;;;;;5089639;28;20117;-77
2022/11/10 09:55:55;;;;;;;28.73;8.15;;;11.70;99.90;;;;;;5092050;28;20052;-77
2022/11/10 09:58:29;;;;;;;24.00;7.68;;;12.50;99.90;;;;;;5093053;28;20127;-76
2022/11/10 10:01:24;;;;;;;28.23;7.72;;;11.70;99.90;;;;;;5093115;28;20174;-79
2022/11/10 10:04:02;;;;;;;25.20;7.10;;;11.70;99.90;;;;;;5075119;28;20066;-77
2022/11/10 10:06:28;;;;;;;25.50;7.47;;;11.70;99.90;;;;;;5092903;28;20490;-78
2022/11/10 10:09:21;;;;;;;24.70;6.20;;;11.70;99.90;;;;;;5092867;28;20044;-75
2022/11/10 10:12:10;;;;;;;28.30;6.82;;;11.70;99.90;;;;;;5092905;28;20552;-77
2022/11/10 10:14:49;;;;;;;28.00;7.53;;;11.80;99.90;;;;;;5092887;28;20082;-77
2022/11/10 10:17:29;;;;;;;29.48;6.20;;;11.80;99.90;;;;;;5092712;28;20115;-75
2022/11/10 10:20:10;;;;;;;23.02;6.10;;;11.90;99.90;;;;;;5074625;28;20070;-75
2022/11/10 10:22:48;;;;;;;27.48;6.97;;;11.90;99.90;;;;;;5092522;28;20127;-77
2022/11/10 10:25:20;;;;;;;25.13;6.97;;;12.00;99.90;;;;;;5092691;28;20047;-77
2022/11/10 10:27:53;;;;;;;29.55;6.88;;;12.30;99.90;;;;;;5057774;28;20131;-76
2022/11/10 10:30:20;;;;;;;19.98;6.43;;;12.10;99.90;;;;;;5092434;28;20059;-77
2022/11/10 10:32:45;;;;;;;24.00;6.07;;;12.10;99.90;;;;;;5092479;28;20058;-76
2022/11/10 10:35:16;;;;;;;23.50;6.30;;;12.20;99.90;;;;;;5092599;28;20115;-78
2022/11/10 10:37:41;;;;;;;34.33;7.20;;;12.30;99.90;;;;;;5092364;28;20401;-77
2022/11/10 10:40:13;;;;;;;28.73;6.47;;;12.30;99.90;;;;;;5092662;28;20119;-77
2022/11/10 10:42:40;;;;;;;28.70;6.38;;;12.30;99.90;;;;;;5092606;28;20697;-78
2022/11/10 10:45:11;;;;;;;21.38;6.18;;;12.60;99.90;;;;;;5092145;28;20044;-77
2022/11/10 10:47:38;;;;;;;27.58;7.25;;;12.40;99.90;;;;;;5092402;28;20108;-76
2022/11/10 10:50:15;;;;;;;22.10;5.70;;;12.60;99.90;;;;;;5092220;28;20497;-78
2022/11/10 10:52:41;;;;;;;24.27;6.53;;;12.60;99.90;;;;;;5092239;28;20128;-78
2022/11/10 10:55:08;;;;;;;27.60;5.97;;;12.60;99.90;;;;;;5091980;28;20093;-76
2022/11/10 10:57:34;;;;;;;27.42;6.28;;;12.50;99.90;;;;;;5092149;28;20047;-77
2022/11/10 11:00:22;;;;;;;32.17;6.18;;;12.60;99.90;;;;;;5091632;28;20074;-77
2022/11/10 11:03:17;;;;;;;28.13;5.35;;;12.60;99.90;;;;;;5091940;28;20052;-76
2022/11/10 11:05:59;;;;;;;25.13;5.15;;;12.60;99.90;;;;;;5091826;28;20498;-77
2022/11/10 11:08:25;;;;;;;21.55;5.03;;;12.60;99.90;;;;;;5091161;28;20394;-78
2022/11/10 11:10:52;;;;;;;25.90;5.25;;;12.70;99.90;;;;;;5092020;28;20552;-79
2022/11/10 11:13:28;;;;;;;22.80;4.63;;;12.60;99.90;;;;;;5091727;28;20117;-78
2022/11/10 11:16:03;;;;;;;27.98;4.93;;;12.90;99.90;;;;;;5091790;28;20044;-77
2022/11/10 11:18:30;;;;;;;24.02;4.88;;;12.60;99.90;;;;;;5091711;28;20044;-75
2022/11/10 11:21:21;;;;;;;24.35;5.07;;;12.70;99.90;;;;;;5073537;28;20492;-77
2022/11/10 11:24:12;;;;;;;28.73;5.25;;;12.70;99.90;;;;;;5091358;28;20139;-76
2022/11/10 11:26:49;;;;;;;26.70;5.00;;;12.70;99.90;;;;;;5088385;28;20127;-77
2022/11/10 11:29:33;;;;;;;20.25;4.40;;;12.70;99.90;;;;;;5069171;28;20128;-74
2022/11/10 11:32:22;;;;;;;18.40;5.43;;;12.70;99.90;;;;;;5071092;28;20395;-77
2022/11/10 11:35:03;;;;;;;19.25;3.95;;;12.70;99.90;;;;;;5071358;28;20106;-78
2022/11/10 11:37:57;;;;;;;20.95;4.57;;;12.90;99.90;;;;;;5069290;28;20414;-78
2022/11/10 11:40:46;;;;;;;22.42;4.75;;;13.00;99.90;;;;;;5052135;28;20052;-78
2022/11/10 11:43:28;;;;;;;28.33;4.93;;;12.90;99.90;;;;;;5070218;28;20048;-76
2022/11/10 11:46:03;;;;;;;21.65;3.63;;;12.90;99.90;;;;;;5052940;28;20167;-77
2022/11/10 11:49:02;;;;;;;21.08;4.13;;;13.00;99.90;;;;;;5070720;28;20056;-76
2022/11/10 11:51:38;;;;;;;23.83;4.47;;;13.10;99.90;;;;;;5036132;28;20048;-77
2022/11/10 11:54:26;;;;;;;20.17;3.53;;;13.10;99.90;;;;;;5070374;28;20079;-78
2022/11/10 11:57:17;;;;;;;22.15;5.03;;;13.10;99.90;;;;;;5070682;28;20132;-77
2022/11/10 12:00:01;;;;;;;21.90;4.50;;;13.40;99.90;;;;;;5033050;28;20057;-75
2022/11/10 12:03:05;;;;;;;21.53;3.90;;;13.20;99.90;;;;;;5057564;28;20036;-76
2022/11/10 12:05:46;;;;;;;28.92;3.85;;;13.20;99.90;;;;;;5069946;28;20534;-78
2022/11/10 12:08:21;;;;;;;18.48;3.50;;;13.20;99.90;;;;;;5070540;28;20044;-76
2022/11/10 12:10:53;;;;;;;16.92;3.10;;;13.20;99.90;;;;;;5070483;28;20051;-77
2022/11/10 12:13:36;;;;;;;21.83;3.10;;;13.20;99.90;;;;;;5069752;28;20403;-76
2022/11/10 12:16:11;;;;;;;15.73;3.15;;;13.20;99.90;;;;;;5070543;28;20052;-78
2022/11/10 12:18:47;;;;;;;30.05;3.58;;;13.60;99.90;;;;;;5069903;28;20487;-78
2022/11/10 12:21:47;;;;;;;24.55;3.83;;;13.20;99.90;;;;;;5052120;28;20040;-77
2022/11/10 12:24:33;;;;;;;26.15;3.78;;;13.20;99.90;;;;;;5070367;28;20071;-76
2022/11/10 12:27:16;;;;;;;20.65;3.75;;;13.30;99.90;;;;;;5051901;28;20043;-77
2022/11/10 12:29:51;;;;;;;21.40;3.40;;;13.20;99.90;;;;;;5069815;28;20402;-79
2022/11/10 12:32:22;;;;;;;25.60;3.50;;;13.30;99.90;;;;;;5069889;28;20043;-75
2022/11/10 12:34:59;;;;;;;24.45;3.60;;;13.40;99.90;;;;;;5052126;28;20067;-77
2022/11/10 12:37:34;;;;;;;25.17;3.55;;;13.20;99.90;;;;;;5084581;28;20059;-78
2022/11/10 12:40:13;;;;;;;28.17;4.78;;;13.10;99.90;;;;;;5064792;28;20060;-78
2022/11/10 12:42:40;;;;;;;25.63;4.18;;;13.20;99.90;;;;;;5083771;28;20138;-77
2022/11/10 12:45:35;;;;;;;20.20;3.08;;;13.10;99.90;;;;;;5089976;28;20048;-75
2022/11/10 12:48:03;;;;;;;24.75;3.20;;;13.10;99.90;;;;;;5007601;28;20057;-76
2022/11/10 12:50:47;;;;;;;27.58;4.68;;;13.20;99.90;;;;;;5007169;28;20552;-77
2022/11/10 12:53:17;;;;;;;21.00;3.77;;;13.10;99.90;;;;;;5007652;28;20054;-76
2022/11/10 12:55:56;;;;;;;17.92;4.05;;;13.10;99.90;;;;;;5007684;28;20054;-76
2022/11/10 12:58:23;;;;;;;22.30;3.20;;;13.10;99.90;;;;;;5007314;28;20053;-76
2022/11/10 13:01:03;;;;;;;26.02;3.55;;;13.20;99.90;;;;;;4991192;28;20062;-76
2022/11/10 13:03:35;;;;;;;21.00;3.63;;;13.20;99.90;;;;;;5007719;28;20435;-76
2022/11/10 13:06:21;;;;;;;22.52;3.30;;;13.20;99.90;;;;;;4990095;28;20050;-76
2022/11/10 13:08:48;;;;;;;29.98;4.32;;;13.30;99.90;;;;;;5001683;28;20058;-76
2022/11/10 13:11:14;;;;;;;25.52;3.35;;;13.20;99.90;;;;;;5007592;28;20093;-77
2022/11/10 13:13:44;;;;;;;18.67;2.83;;;13.30;99.90;;;;;;5007080;28;20512;-74